createdAt,value
2023-05-10T00:01:22.053Z,41.29
2023-05-10T00:03:49.463Z,41.16
2023-05-10T00:06:16.813Z,41.00
2023-05-10T00:08:44.015Z,41.28
2023-05-10T00:11:11.155Z,41.42
2023-05-10T00:13:38.233Z,41.19
2023-05-10T00:16:05.942Z,41.19
2023-05-10T00:18:33.315Z,41.19
2023-05-10T00:21:00.625Z,42.26
2023-05-10T00:23:27.917Z,42.40
2023-05-10T00:25:55.299Z,42.94
2023-05-10T00:28:22.441Z,44.16
2023-05-10T00:30:49.584Z,44.00
2023-05-10T00:33:16.812Z,44.32
2023-05-10T00:35:44.466Z,44.51
2023-05-10T00:38:11.644Z,44.86
2023-05-10T00:40:39.095Z,45.35
2023-05-10T00:43:12.250Z,45.90
2023-05-10T00:45:41.501Z,46.54
2023-05-10T00:48:09.793Z,46.39
2023-05-10T00:50:38.619Z,46.98
2023-05-10T00:53:05.986Z,46.41
2023-05-10T00:55:33.262Z,47.04
2023-05-10T00:58:00.482Z,47.68
2023-05-10T01:00:27.676Z,48.08
2023-05-10T01:02:55.749Z,48.18
2023-05-10T01:05:23.563Z,47.47
2023-05-10T01:07:51.913Z,46.50
2023-05-10T01:10:19.663Z,47.62
2023-05-10T01:12:48.907Z,48.03
2023-05-10T01:15:17.609Z,48.28
2023-05-10T01:17:47.109Z,48.27
2023-05-10T01:20:14.865Z,47.70
2023-05-10T01:23:09.001Z,47.78
2023-05-10T01:26:16.087Z,48.13
2023-05-10T01:28:49.327Z,48.53
2023-05-10T01:32:21.727Z,48.89
2023-05-10T01:35:19.266Z,47.81
2023-05-10T01:37:53.896Z,47.38
2023-05-10T01:40:47.182Z,48.78
2023-05-10T01:43:20.816Z,48.34
2023-05-10T01:46:13.837Z,48.92
2023-05-10T01:49:00.571Z,49.99
2023-05-10T01:51:32.137Z,50.22
2023-05-10T01:54:04.077Z,48.81
2023-05-10T01:56:33.545Z,48.06
2023-05-10T01:59:01.321Z,47.81
2023-05-10T02:01:29.325Z,47.84
2023-05-10T02:03:57.307Z,47.77
2023-05-10T02:06:25.863Z,47.68
2023-05-10T02:08:53.536Z,47.97
2023-05-10T02:11:22.156Z,47.91
2023-05-10T02:13:52.362Z,47.88
2023-05-10T02:16:23.485Z,48.04
2023-05-10T02:18:53.214Z,47.95
2023-05-10T02:21:22.223Z,48.41
2023-05-10T02:23:50.361Z,49.87
2023-05-10T02:26:18.553Z,50.93
2023-05-10T02:28:46.514Z,51.17
2023-05-10T02:31:15.809Z,50.79
2023-05-10T02:33:44.214Z,51.34
2023-05-10T02:36:15.771Z,51.21
2023-05-10T02:38:43.122Z,50.84
2023-05-10T02:41:11.581Z,50.74
2023-05-10T02:43:41.915Z,50.65
2023-05-10T02:46:10.425Z,50.17
2023-05-10T02:48:38.515Z,50.29
2023-05-10T02:51:08.509Z,50.43
2023-05-10T02:53:37.589Z,50.77
2023-05-10T02:56:14.529Z,51.35
2023-05-10T02:58:42.893Z,51.32
2023-05-10T03:01:13.554Z,51.11
2023-05-10T03:03:43.682Z,51.18
2023-05-10T03:06:11.277Z,51.10
2023-05-10T03:08:38.769Z,51.24
2023-05-10T03:11:19.131Z,51.43
2023-05-10T03:14:15.089Z,51.18
2023-05-10T03:16:55.887Z,51.18
2023-05-10T03:19:32.864Z,51.06
2023-05-10T03:22:01.353Z,50.81
2023-05-10T03:24:36.141Z,50.55
2023-05-10T03:27:08.312Z,50.51
2023-05-10T03:29:40.650Z,50.49
2023-05-10T03:32:08.200Z,50.61
2023-05-10T03:34:38.260Z,50.43
2023-05-10T03:37:08.579Z,50.06
2023-05-10T03:39:36.550Z,50.27
2023-05-10T03:42:06.536Z,50.02
2023-05-10T03:44:34.590Z,50.38
2023-05-10T03:47:02.017Z,50.09
2023-05-10T03:49:29.651Z,50.61
2023-05-10T03:51:57.100Z,50.13
2023-05-10T03:54:27.714Z,49.91
2023-05-10T03:56:55.112Z,49.70
2023-05-10T03:59:22.877Z,49.29
2023-05-10T04:01:52.276Z,49.10
2023-05-10T04:04:19.931Z,49.14
2023-05-10T04:06:50.762Z,48.89
2023-05-10T04:09:18.357Z,48.89
2023-05-10T04:11:45.528Z,48.41
2023-05-10T04:14:12.925Z,48.29
2023-05-10T04:16:40.661Z,48.17
2023-05-10T04:19:07.809Z,48.50
2023-05-10T04:21:34.950Z,48.34
2023-05-10T04:24:02.031Z,48.09
2023-05-10T04:26:29.284Z,48.00
2023-05-10T04:28:56.411Z,47.66
2023-05-10T04:31:25.973Z,47.08
2023-05-10T04:33:53.478Z,46.73
2023-05-10T04:36:20.737Z,46.65
2023-05-10T04:38:47.968Z,46.17
2023-05-10T04:41:15.096Z,46.06
2023-05-10T04:43:42.195Z,46.01
2023-05-10T04:46:09.378Z,45.66
2023-05-10T04:48:36.498Z,45.71
2023-05-10T04:51:05.169Z,45.61
2023-05-10T04:53:32.589Z,45.44
2023-05-10T04:55:59.894Z,44.85
2023-05-10T04:58:27.193Z,44.85
2023-05-10T05:00:54.241Z,44.58
2023-05-10T05:03:24.570Z,44.18
2023-05-10T05:05:51.906Z,43.35
2023-05-10T05:08:21.282Z,43.39
2023-05-10T05:10:51.276Z,42.92
2023-05-10T05:13:18.460Z,42.39
2023-05-10T05:15:45.811Z,42.22
2023-05-10T05:18:13.156Z,42.10
2023-05-10T05:20:40.520Z,41.94
2023-05-10T05:23:09.873Z,41.08
2023-05-10T05:25:37.335Z,40.61
2023-05-10T05:28:04.558Z,40.79
2023-05-10T05:30:31.573Z,40.71
2023-05-10T05:32:58.721Z,39.32
2023-05-10T05:35:25.950Z,37.83
2023-05-10T05:37:53.120Z,36.55
2023-05-10T05:40:24.680Z,36.02
2023-05-10T05:42:52.091Z,35.92
2023-05-10T05:45:24.023Z,34.53
2023-05-10T05:47:51.162Z,34.54
2023-05-10T05:50:20.489Z,34.27
2023-05-10T05:52:48.929Z,34.51
2023-05-10T05:55:16.945Z,34.53
2023-05-10T05:57:44.627Z,33.70
2023-05-10T06:00:12.183Z,33.49
2023-05-10T06:02:42.520Z,32.61
2023-05-10T06:05:09.967Z,32.21
2023-05-10T06:07:40.450Z,31.65
2023-05-10T06:10:08.058Z,30.20
2023-05-10T06:12:38.712Z,30.27
2023-05-10T06:15:09.169Z,29.35
2023-05-10T06:17:36.363Z,28.96
2023-05-10T06:20:03.888Z,28.68
2023-05-10T06:22:32.208Z,28.75
2023-05-10T06:24:59.357Z,28.51
2023-05-10T06:27:26.441Z,28.99
2023-05-10T06:30:02.086Z,28.35
2023-05-10T06:32:40.164Z,28.50
2023-05-10T06:35:09.765Z,27.45
2023-05-10T06:37:38.882Z,27.26
2023-05-10T06:40:07.393Z,27.78
2023-05-10T06:42:34.824Z,27.50
2023-05-10T06:45:03.471Z,27.28
2023-05-10T06:47:32.854Z,27.41
2023-05-10T06:50:00.216Z,27.01
2023-05-10T06:52:27.248Z,27.06
2023-05-10T06:54:54.424Z,26.64
2023-05-10T06:57:31.418Z,26.26
2023-05-10T07:00:02.959Z,26.48
2023-05-10T07:02:33.859Z,25.75
2023-05-10T07:05:03.270Z,25.93
2023-05-10T07:07:32.669Z,25.51
2023-05-10T07:10:00.140Z,25.26
2023-05-10T07:12:27.662Z,25.17
2023-05-10T07:14:54.914Z,25.26
2023-05-10T07:17:22.153Z,24.87
2023-05-10T07:19:49.628Z,24.62
2023-05-10T07:22:18.403Z,24.41
2023-05-10T07:24:46.682Z,24.15
2023-05-10T07:27:14.202Z,24.03
2023-05-10T07:29:41.218Z,24.19
2023-05-10T07:32:08.270Z,24.25
2023-05-10T07:34:35.391Z,23.98
2023-05-10T07:37:02.881Z,24.29
2023-05-10T07:39:30.153Z,24.00
2023-05-10T07:41:57.521Z,23.63
2023-05-10T07:44:24.728Z,23.55
2023-05-10T07:46:51.845Z,23.27
2023-05-10T07:49:19.418Z,23.39
2023-05-10T07:51:46.714Z,23.40
2023-05-10T07:54:13.975Z,23.18
2023-05-10T07:56:45.830Z,23.40
2023-05-10T07:59:16.699Z,23.79
2023-05-10T08:01:44.112Z,24.08
2023-05-10T08:04:11.730Z,22.94
2023-05-10T08:06:39.393Z,23.21
2023-05-10T08:09:06.445Z,23.52
2023-05-10T08:11:35.034Z,23.98
2023-05-10T08:14:02.713Z,23.18
2023-05-10T08:16:31.761Z,22.88
2023-05-10T08:19:00.976Z,22.65
2023-05-10T08:21:28.640Z,22.80
2023-05-10T08:23:57.244Z,22.57
2023-05-10T08:26:24.331Z,21.75
2023-05-10T08:28:51.359Z,22.28
2023-05-10T08:31:23.480Z,22.56
2023-05-10T08:33:52.686Z,22.03
2023-05-10T08:36:22.994Z,22.17
2023-05-10T08:38:56.180Z,21.64
2023-05-10T08:41:27.491Z,21.56
2023-05-10T08:43:56.732Z,20.65
2023-05-10T08:46:28.061Z,20.29
2023-05-10T08:48:55.303Z,21.43
2023-05-10T08:51:35.530Z,21.44
2023-05-10T08:54:04.099Z,20.99
2023-05-10T08:56:31.187Z,20.97
2023-05-10T08:58:58.454Z,19.86
2023-05-10T09:01:26.549Z,19.63
2023-05-10T09:03:54.284Z,20.40
2023-05-10T09:06:22.722Z,18.63
2023-05-10T09:08:49.879Z,18.21
2023-05-10T09:11:23.770Z,20.41
2023-05-10T09:13:52.739Z,20.67
2023-05-10T09:16:21.572Z,21.17
2023-05-10T09:18:50.845Z,21.09
2023-05-10T09:21:17.923Z,21.66
2023-05-10T09:23:48.944Z,21.48
2023-05-10T09:26:16.607Z,21.75
2023-05-10T09:28:59.622Z,21.54
2023-05-10T09:31:55.941Z,21.06
2023-05-10T09:34:37.102Z,20.50
2023-05-10T09:37:07.139Z,20.68
2023-05-10T09:39:35.742Z,19.22
2023-05-10T09:42:14.351Z,17.97
2023-05-10T09:44:50.943Z,18.14
2023-05-10T09:47:21.345Z,18.14
2023-05-10T09:49:52.311Z,19.25
2023-05-10T09:52:19.488Z,19.22
2023-05-10T09:55:09.041Z,18.06
2023-05-10T09:57:38.087Z,18.69
2023-05-10T10:00:07.110Z,19.47
2023-05-10T10:02:44.334Z,18.51
2023-05-10T10:05:14.472Z,18.04
2023-05-10T10:07:51.479Z,17.11
2023-05-10T10:10:18.644Z,15.98
2023-05-10T10:12:46.795Z,15.42
2023-05-10T10:15:19.520Z,15.94
2023-05-10T10:17:47.803Z,16.80
2023-05-10T10:20:16.349Z,17.79
2023-05-10T10:22:50.496Z,18.04
2023-05-10T10:25:19.356Z,18.61
2023-05-10T10:27:53.342Z,18.40
2023-05-10T10:30:23.162Z,18.81
2023-05-10T10:32:59.630Z,19.50
2023-05-10T10:35:26.710Z,19.07
2023-05-10T10:37:56.732Z,19.16
2023-05-10T10:40:28.525Z,19.46
2023-05-10T10:42:56.313Z,19.81
2023-05-10T10:45:25.542Z,19.94
2023-05-10T10:48:21.298Z,19.83
2023-05-10T10:50:48.417Z,19.74
2023-05-10T10:53:19.401Z,18.76
2023-05-10T10:55:51.588Z,16.19
2023-05-10T10:58:33.286Z,15.22
2023-05-10T11:01:19.520Z,16.16
2023-05-10T11:04:18.743Z,17.69
2023-05-10T11:06:50.485Z,18.22
2023-05-10T11:09:18.611Z,18.54
2023-05-10T11:11:59.587Z,19.35
2023-05-10T11:14:26.917Z,19.55
2023-05-10T11:16:54.095Z,19.41
2023-05-10T11:19:21.868Z,19.27
2023-05-10T11:21:55.099Z,19.59
2023-05-10T11:24:24.382Z,19.45
2023-05-10T11:26:56.669Z,20.09
2023-05-10T11:29:24.084Z,20.28
2023-05-10T11:31:52.014Z,20.34
2023-05-10T11:34:31.890Z,20.26
2023-05-10T11:36:59.463Z,19.85
2023-05-10T11:39:30.561Z,19.95
2023-05-10T11:42:00.582Z,20.22
2023-05-10T11:44:34.561Z,20.32
2023-05-10T11:47:05.090Z,20.06
2023-05-10T11:49:35.066Z,19.55
2023-05-10T11:52:10.369Z,19.12
2023-05-10T11:54:37.544Z,18.52
2023-05-10T11:57:05.168Z,18.80
2023-05-10T11:59:34.264Z,19.13
2023-05-10T12:02:02.569Z,19.78
2023-05-10T12:04:30.662Z,19.38
2023-05-10T12:07:01.060Z,19.97
2023-05-10T12:09:42.755Z,20.53
2023-05-10T12:12:10.964Z,20.97
2023-05-10T12:14:38.264Z,21.13
2023-05-10T12:17:05.691Z,21.57
2023-05-10T12:19:39.792Z,21.08
2023-05-10T12:22:07.533Z,20.53
2023-05-10T12:24:36.571Z,20.58
2023-05-10T12:27:08.446Z,20.84
2023-05-10T12:29:38.409Z,21.56
2023-05-10T12:32:05.605Z,21.51
2023-05-10T12:34:37.332Z,21.77
2023-05-10T12:37:05.089Z,21.19
2023-05-10T12:39:42.975Z,21.49
2023-05-10T12:42:10.530Z,21.45
2023-05-10T12:44:40.253Z,21.99
2023-05-10T12:47:10.095Z,22.26
2023-05-10T12:49:42.862Z,22.20
2023-05-10T12:52:09.868Z,22.58
2023-05-10T12:54:38.086Z,22.71
2023-05-10T12:57:05.333Z,22.57
2023-05-10T12:59:32.384Z,22.90
2023-05-10T13:01:59.503Z,22.33
2023-05-10T13:04:26.861Z,22.48
2023-05-10T13:06:53.983Z,22.40
2023-05-10T13:09:21.591Z,22.70
2023-05-10T13:11:49.421Z,22.81
2023-05-10T13:14:18.206Z,23.13
2023-05-10T13:16:45.909Z,23.21
2023-05-10T13:19:14.263Z,22.80
2023-05-10T13:21:47.957Z,22.89
2023-05-10T13:24:15.176Z,23.27
2023-05-10T13:26:44.874Z,22.71
2023-05-10T13:29:11.990Z,23.85
2023-05-10T13:31:39.129Z,23.86
2023-05-10T13:34:06.725Z,23.55
2023-05-10T13:36:35.276Z,23.72
2023-05-10T13:39:03.990Z,24.01
2023-05-10T13:41:30.936Z,24.60
2023-05-10T13:43:58.141Z,24.67
2023-05-10T13:46:25.240Z,24.52
2023-05-10T13:48:53.348Z,24.77
2023-05-10T13:51:22.665Z,24.81
2023-05-10T13:53:53.218Z,24.63
2023-05-10T13:56:20.411Z,24.72
2023-05-10T13:58:49.952Z,24.74
2023-05-10T14:01:17.129Z,24.64
2023-05-10T14:03:44.433Z,24.95
2023-05-10T14:06:11.926Z,25.68
2023-05-10T14:08:38.983Z,25.35
2023-05-10T14:11:06.389Z,25.55
2023-05-10T14:13:33.950Z,25.69
2023-05-10T14:16:01.894Z,26.11
2023-05-10T14:18:29.587Z,26.60
2023-05-10T14:20:57.364Z,26.17
2023-05-10T14:23:29.702Z,25.85
2023-05-10T14:25:57.566Z,25.52
2023-05-10T14:28:25.776Z,25.76
2023-05-10T14:30:53.026Z,25.73
2023-05-10T14:33:22.539Z,25.68
2023-05-10T14:35:49.940Z,25.93
2023-05-10T14:38:17.111Z,26.07
2023-05-10T14:40:46.265Z,26.14
2023-05-10T14:43:13.531Z,26.32
2023-05-10T14:45:43.482Z,25.98
2023-05-10T14:48:16.511Z,26.13
2023-05-10T14:50:43.742Z,26.15
2023-05-10T14:53:11.211Z,25.93
2023-05-10T14:55:39.365Z,25.93
2023-05-10T14:58:06.726Z,26.01
2023-05-10T15:00:36.715Z,26.06
2023-05-10T15:03:07.821Z,25.97
2023-05-10T15:05:35.452Z,26.07
2023-05-10T15:08:03.202Z,26.20
2023-05-10T15:10:32.541Z,26.50
2023-05-10T15:13:00.921Z,27.03
2023-05-10T15:15:27.967Z,27.05
2023-05-10T15:17:55.049Z,26.71
2023-05-10T15:20:22.486Z,26.68
2023-05-10T15:22:49.481Z,26.88
2023-05-10T15:25:17.375Z,26.97
2023-05-10T15:27:44.748Z,26.86
2023-05-10T15:30:12.269Z,26.92
2023-05-10T15:32:41.234Z,27.26
2023-05-10T15:35:11.667Z,27.23
2023-05-10T15:37:41.948Z,27.53
2023-05-10T15:40:09.343Z,27.58
2023-05-10T15:42:36.447Z,27.59
2023-05-10T15:45:03.957Z,27.51
2023-05-10T15:47:34.003Z,27.58
2023-05-10T15:50:01.202Z,27.90
2023-05-10T15:52:30.990Z,28.07
2023-05-10T15:54:58.318Z,27.79
2023-05-10T15:57:25.527Z,28.13
2023-05-10T15:59:54.442Z,28.01
2023-05-10T16:02:23.565Z,27.74
2023-05-10T16:04:55.613Z,27.41
2023-05-10T16:07:22.786Z,27.37
2023-05-10T16:09:49.946Z,27.55
2023-05-10T16:12:17.068Z,28.07
2023-05-10T16:14:44.466Z,27.93
2023-05-10T16:17:15.802Z,27.17
2023-05-10T16:19:43.307Z,27.50
2023-05-10T16:22:10.469Z,27.73
2023-05-10T16:24:37.685Z,28.42
2023-05-10T16:27:04.803Z,28.41
2023-05-10T16:29:34.932Z,28.93
2023-05-10T16:32:02.326Z,28.53
2023-05-10T16:43:39.975Z,31.68
2023-05-10T16:46:11.531Z,32.34
2023-05-10T16:48:39.539Z,32.67
2023-05-10T16:51:06.608Z,32.35
2023-05-10T16:53:34.457Z,32.17
2023-05-10T16:56:04.269Z,31.97
2023-05-10T16:58:31.379Z,31.81
2023-05-10T17:00:58.735Z,31.95
2023-05-10T17:03:26.734Z,32.44
2023-05-10T17:05:56.708Z,33.16
2023-05-10T17:08:23.882Z,33.28
2023-05-10T17:10:53.053Z,33.35
2023-05-10T17:13:22.576Z,33.68
2023-05-10T17:15:54.035Z,34.85
2023-05-10T17:18:24.524Z,33.48
2023-05-10T17:20:53.979Z,33.61
2023-05-10T17:23:49.487Z,33.53
2023-05-10T17:26:20.713Z,33.25
2023-05-10T17:28:47.823Z,31.89
2023-05-10T17:31:35.980Z,32.73
2023-05-10T17:34:05.481Z,31.42
2023-05-10T17:36:52.375Z,31.62
2023-05-10T17:39:22.106Z,31.90
2023-05-10T17:41:52.040Z,32.45
2023-05-10T17:44:21.722Z,32.37
2023-05-10T17:46:49.166Z,32.49
2023-05-10T17:49:29.104Z,33.31
2023-05-10T17:51:58.522Z,33.63
2023-05-10T17:54:28.063Z,34.43
2023-05-10T17:56:59.447Z,34.64
2023-05-10T17:59:26.667Z,35.42
2023-05-10T18:01:57.054Z,35.55
2023-05-10T18:04:31.124Z,36.27
2023-05-10T18:07:01.565Z,35.78
2023-05-10T18:09:36.065Z,35.97
2023-05-10T18:12:14.088Z,36.40
2023-05-10T18:14:43.894Z,36.68
2023-05-10T18:17:13.752Z,37.54
2023-05-10T18:19:50.486Z,38.53
2023-05-10T18:22:23.208Z,39.30
2023-05-10T18:24:53.588Z,39.18
2023-05-10T18:27:26.838Z,38.72
2023-05-10T18:29:54.652Z,38.11
2023-05-10T18:32:23.053Z,37.70
2023-05-10T18:34:50.286Z,37.94
2023-05-10T18:37:20.228Z,38.33
2023-05-10T18:39:48.070Z,37.05
2023-05-10T18:42:18.345Z,37.49
2023-05-10T18:44:45.367Z,37.50
2023-05-10T18:47:12.372Z,38.06
2023-05-10T18:49:41.100Z,36.34
2023-05-10T18:52:08.330Z,34.97
2023-05-10T18:54:43.005Z,35.51
2023-05-10T18:57:14.012Z,35.80
2023-05-10T18:59:48.992Z,36.04
2023-05-10T19:02:18.791Z,35.27
2023-05-10T19:04:52.145Z,36.22
2023-05-10T19:07:22.609Z,37.28
2023-05-10T19:09:50.679Z,36.58
2023-05-10T19:12:22.249Z,37.63
2023-05-10T19:14:55.344Z,37.11
2023-05-10T19:17:26.215Z,37.46
2023-05-10T19:19:53.406Z,38.42
2023-05-10T19:22:44.921Z,38.25
2023-05-10T19:25:18.432Z,38.71
2023-05-10T19:27:54.906Z,38.53
2023-05-10T19:30:21.996Z,39.02
2023-05-10T19:32:48.964Z,39.01
2023-05-10T19:35:20.549Z,38.74
2023-05-10T19:37:55.471Z,39.15
2023-05-10T19:40:22.862Z,38.66
2023-05-10T19:42:52.058Z,39.32
2023-05-10T19:45:19.633Z,39.56
2023-05-10T19:47:50.687Z,39.89
2023-05-10T19:50:18.355Z,40.27
2023-05-10T19:52:49.298Z,39.94
2023-05-10T19:55:33.170Z,39.54
2023-05-10T19:58:04.530Z,38.65
2023-05-10T20:00:32.045Z,39.38
2023-05-10T20:02:59.212Z,39.23
2023-05-10T20:05:26.462Z,39.68
2023-05-10T20:07:54.930Z,41.00
2023-05-10T20:10:28.550Z,41.88
2023-05-10T20:12:59.149Z,42.60
2023-05-10T20:15:31.819Z,42.69
2023-05-10T20:17:58.944Z,42.86
2023-05-10T20:20:26.035Z,42.91
2023-05-10T20:22:53.121Z,42.36
2023-05-10T20:25:22.241Z,41.70
2023-05-10T20:27:51.027Z,42.34
2023-05-10T20:30:23.106Z,42.34
2023-05-10T20:32:53.251Z,42.11
2023-05-10T20:35:20.470Z,42.14
2023-05-10T20:40:30.048Z,42.22
2023-05-10T20:43:27.625Z,41.42
2023-05-10T20:46:15.132Z,41.28
2023-05-10T20:48:45.244Z,42.54
2023-05-10T20:51:12.296Z,43.33
2023-05-10T20:53:39.339Z,44.08
2023-05-10T20:56:06.518Z,44.71
2023-05-10T20:58:33.839Z,43.66
2023-05-10T21:01:01.563Z,42.48
2023-05-10T21:03:28.907Z,43.26
2023-05-10T21:05:57.092Z,44.70
2023-05-10T21:08:24.253Z,45.04
2023-05-10T21:10:51.241Z,45.10
2023-05-10T21:13:18.440Z,45.08
2023-05-10T21:15:46.671Z,45.16
2023-05-10T21:18:14.123Z,45.51
2023-05-10T21:20:41.140Z,45.36
2023-05-10T21:23:08.499Z,45.58
2023-05-10T21:25:35.852Z,45.44
2023-05-10T21:28:03.186Z,45.27
2023-05-10T21:30:30.366Z,44.71
2023-05-10T21:33:01.701Z,44.24
2023-05-10T21:35:30.200Z,45.56
2023-05-10T21:38:00.014Z,46.47
2023-05-10T21:40:27.000Z,46.16
2023-05-10T21:42:54.004Z,44.10
2023-05-10T21:45:25.546Z,43.76
2023-05-10T21:47:58.931Z,41.04
2023-05-10T21:50:27.653Z,41.94
2023-05-10T21:52:55.891Z,41.60
2023-05-10T21:55:22.971Z,42.83
2023-05-10T21:57:50.870Z,43.67
2023-05-10T22:00:19.870Z,43.65
2023-05-10T22:02:47.534Z,44.58
2023-05-10T22:05:14.690Z,44.71
2023-05-10T22:07:41.638Z,44.91
2023-05-10T22:10:11.728Z,44.54
2023-05-10T22:12:38.837Z,44.55
2023-05-10T22:15:10.212Z,46.41
2023-05-10T22:17:39.728Z,47.07
2023-05-10T22:20:08.554Z,47.76
2023-05-10T22:22:36.833Z,47.77
2023-05-10T22:25:07.992Z,48.63
2023-05-10T22:27:35.194Z,48.58
2023-05-10T22:30:02.934Z,48.88
2023-05-10T22:32:35.908Z,48.10
2023-05-10T22:35:03.452Z,47.40
2023-05-10T22:37:32.375Z,47.86
2023-05-10T22:39:59.441Z,47.96
2023-05-10T22:42:33.517Z,47.05
2023-05-10T22:45:00.680Z,46.34
2023-05-10T22:47:27.679Z,46.23
2023-05-10T22:49:57.553Z,46.17
2023-05-10T22:55:09.366Z,45.15
2023-05-10T22:57:36.474Z,45.02
2023-05-10T23:00:06.237Z,45.36
2023-05-10T23:02:34.611Z,45.36
2023-05-10T23:05:01.920Z,45.13
2023-05-10T23:07:30.232Z,46.06
2023-05-10T23:09:58.678Z,47.05
2023-05-10T23:12:28.212Z,47.49
2023-05-10T23:14:58.003Z,47.92
2023-05-10T23:17:28.377Z,47.62
2023-05-10T23:19:55.472Z,48.06
2023-05-10T23:22:30.720Z,48.62
2023-05-10T23:24:58.046Z,49.90
2023-05-10T23:27:29.480Z,50.44
2023-05-10T23:29:57.283Z,50.88
2023-05-10T23:32:24.453Z,50.50
2023-05-10T23:34:51.589Z,50.73
2023-05-10T23:37:18.582Z,51.14
2023-05-10T23:39:45.753Z,50.98
2023-05-10T23:42:12.740Z,49.34
2023-05-10T23:44:39.778Z,47.65
2023-05-10T23:47:09.618Z,48.79
2023-05-10T23:49:37.003Z,46.58
2023-05-10T23:52:04.507Z,46.22
2023-05-10T23:54:31.398Z,47.28
2023-05-10T23:56:58.426Z,47.37
2023-05-10T23:59:25.700Z,46.58
